createdAt,value
2019-01-27T00:00:29.490Z,150.60
2019-01-27T00:03:05.314Z,144.03
2019-01-27T00:05:38.250Z,141.70
2019-01-27T00:08:13.606Z,130.27
2019-01-27T00:10:44.753Z,135.17
2019-01-27T00:13:16.031Z,136.30
2019-01-27T00:15:49.734Z,130.53
2019-01-27T00:18:21.301Z,133.20
2019-01-27T00:20:53.870Z,129.53
2019-01-27T00:23:25.225Z,132.33
2019-01-27T00:25:56.489Z,130.93
2019-01-27T00:28:28.134Z,125.27
2019-01-27T00:30:59.592Z,116.60
2019-01-27T00:33:34.381Z,122.23
2019-01-27T00:36:06.297Z,121.50
2019-01-27T00:38:39.256Z,123.30
2019-01-27T00:41:11.113Z,118.43
2019-01-27T00:43:42.583Z,118.83
2019-01-27T00:46:16.878Z,119.20
2019-01-27T00:48:48.621Z,114.93
2019-01-27T00:51:20.637Z,112.67
2019-01-27T00:53:53.301Z,115.93
2019-01-27T00:56:25.022Z,119.17
2019-01-27T00:58:56.234Z,106.63
2019-01-27T01:01:28.485Z,125.00
2019-01-27T01:03:59.713Z,114.50
2019-01-27T01:06:31.070Z,108.47
2019-01-27T01:09:03.337Z,110.77
2019-01-27T01:11:34.866Z,112.13
2019-01-27T01:14:11.556Z,107.73
2019-01-27T01:16:42.965Z,114.80
2019-01-27T01:19:14.370Z,117.40
2019-01-27T01:24:59.664Z,106.10
2019-01-27T01:27:32.166Z,113.37
2019-01-27T01:30:03.660Z,107.03
2019-01-27T01:32:36.047Z,111.57
2019-01-27T01:35:09.158Z,118.83
2019-01-27T01:37:42.909Z,113.77
2019-01-27T01:40:16.533Z,118.77
2019-01-27T01:42:48.232Z,105.83
2019-01-27T01:45:28.284Z,111.03
2019-01-27T01:48:00.925Z,115.63
2019-01-27T01:50:36.985Z,112.80
2019-01-27T01:53:08.408Z,114.17
2019-01-27T01:55:39.838Z,113.57
2019-01-27T01:58:12.964Z,107.37
2019-01-27T02:00:44.618Z,119.63
2019-01-27T02:03:16.086Z,117.33
2019-01-27T02:05:47.399Z,118.20
2019-01-27T02:08:19.081Z,105.03
2019-01-27T02:10:53.353Z,116.63
2019-01-27T02:13:24.737Z,112.10
2019-01-27T02:16:07.142Z,115.63
2019-01-27T02:18:39.708Z,108.30
2019-01-27T02:21:11.153Z,116.00
2019-01-27T02:23:42.430Z,120.67
2019-01-27T02:26:14.266Z,127.30
2019-01-27T02:28:45.961Z,120.50
2019-01-27T02:31:17.615Z,114.67
2019-01-27T02:33:49.043Z,121.50
2019-01-27T02:36:21.347Z,127.23
2019-01-27T02:38:52.653Z,135.03
2019-01-27T02:41:23.954Z,126.70
2019-01-27T02:43:55.371Z,124.33
2019-01-27T02:46:27.898Z,127.20
2019-01-27T02:48:59.243Z,124.90
2019-01-27T02:51:30.605Z,128.23
2019-01-27T02:54:05.295Z,140.93
2019-01-27T02:56:38.254Z,132.73
2019-01-27T02:59:09.848Z,130.43
2019-01-27T03:01:41.807Z,134.33
2019-01-27T03:04:13.256Z,124.30
2019-01-27T03:06:59.890Z,142.17
2019-01-27T03:09:34.773Z,136.53
2019-01-27T03:12:06.739Z,138.47
2019-01-27T03:14:38.075Z,146.73
2019-01-27T03:17:13.298Z,158.93
2019-01-27T03:19:44.544Z,161.40
2019-01-27T03:22:15.824Z,152.67
2019-01-27T03:24:47.142Z,163.40
2019-01-27T03:27:20.364Z,148.83
2019-01-27T03:29:51.674Z,160.63
2019-01-27T03:32:22.983Z,159.40
2019-01-27T03:34:54.579Z,149.57
2019-01-27T03:37:25.992Z,155.20
2019-01-27T03:39:57.537Z,168.17
2019-01-27T03:42:28.746Z,146.17
2019-01-27T03:45:00.001Z,153.53
2019-01-27T03:47:32.106Z,143.10
2019-01-27T03:50:04.361Z,152.73
2019-01-27T03:52:36.094Z,144.10
2019-01-27T03:55:10.666Z,145.60
2019-01-27T03:57:42.083Z,143.70
2019-01-27T04:00:16.637Z,146.63
2019-01-27T04:02:48.364Z,140.97
2019-01-27T04:05:20.164Z,143.03
2019-01-27T04:07:51.562Z,137.57
2019-01-27T04:10:23.073Z,137.83
2019-01-27T04:12:54.770Z,145.10
2019-01-27T04:15:28.646Z,141.63
2019-01-27T04:17:59.965Z,140.27
2019-01-27T04:20:31.855Z,141.97
2019-01-27T04:23:04.783Z,131.27
2019-01-27T04:25:36.497Z,140.47
2019-01-27T04:28:07.781Z,154.80
2019-01-27T04:30:39.297Z,133.37
2019-01-27T04:33:11.840Z,131.43
2019-01-27T04:35:43.651Z,137.00
2019-01-27T04:38:15.669Z,135.60
2019-01-27T04:40:47.737Z,137.10
2019-01-27T04:43:21.563Z,141.47
2019-01-27T04:45:52.854Z,138.67
2019-01-27T04:48:24.285Z,148.00
2019-01-27T04:50:57.318Z,137.00
2019-01-27T04:53:28.699Z,137.93
2019-01-27T04:56:00.089Z,135.03
2019-01-27T04:58:32.033Z,129.60
2019-01-27T05:01:04.768Z,129.13
2019-01-27T05:03:42.117Z,136.27
2019-01-27T05:06:13.725Z,142.37
2019-01-27T05:08:45.048Z,146.20
2019-01-27T05:11:17.571Z,133.93
2019-01-27T05:13:48.896Z,144.87
2019-01-27T05:16:20.525Z,153.03
2019-01-27T05:18:51.803Z,152.60
2019-01-27T05:21:23.276Z,141.00
2019-01-27T05:23:54.823Z,140.20
2019-01-27T05:26:26.164Z,154.63
2019-01-27T05:28:58.163Z,154.30
2019-01-27T05:31:29.583Z,151.60
2019-01-27T05:34:01.915Z,155.77
2019-01-27T05:36:33.686Z,160.40
2019-01-27T05:39:08.826Z,143.63
2019-01-27T05:41:41.130Z,158.97
2019-01-27T05:44:12.423Z,164.67
2019-01-27T05:46:43.724Z,149.23
2019-01-27T05:49:16.140Z,148.80
2019-01-27T05:51:47.846Z,165.57
2019-01-27T05:54:20.213Z,158.10
2019-01-27T05:56:56.604Z,161.63
2019-01-27T05:59:26.394Z,162.43
2019-01-27T06:01:57.947Z,156.53
2019-01-27T06:04:30.198Z,163.47
2019-01-27T06:07:01.680Z,172.17
2019-01-27T06:09:33.305Z,158.73
2019-01-27T06:12:04.689Z,173.43
2019-01-27T06:14:41.758Z,171.47
2019-01-27T06:17:13.221Z,177.00
2019-01-27T06:19:44.805Z,183.63
2019-01-27T06:22:17.497Z,184.13
2019-01-27T06:24:49.862Z,182.87
2019-01-27T06:27:21.246Z,191.27
2019-01-27T06:29:52.819Z,186.73
2019-01-27T06:32:43.682Z,171.73
2019-01-27T06:35:14.964Z,182.80
2019-01-27T06:37:47.720Z,182.77
2019-01-27T06:40:19.190Z,187.03
2019-01-27T06:42:50.726Z,174.87
2019-01-27T06:45:23.882Z,182.83
2019-01-27T06:47:55.199Z,191.67
2019-01-27T06:50:26.499Z,197.73
2019-01-27T06:52:58.485Z,201.03
2019-01-27T06:55:30.050Z,208.00
2019-01-27T06:58:01.706Z,196.77
2019-01-27T07:01:00.915Z,190.80
2019-01-27T08:23:45.532Z,207.77
2019-01-27T08:26:42.784Z,234.60
2019-01-27T08:29:32.941Z,245.17
2019-01-27T08:32:23.561Z,226.23
2019-01-27T08:34:59.415Z,228.50
2019-01-27T08:37:41.411Z,205.20
2019-01-27T08:40:49.278Z,231.80
2019-01-27T08:43:44.307Z,211.73
2019-01-27T08:46:35.656Z,200.90
2019-01-27T08:49:08.929Z,210.20
2019-01-27T08:52:01.537Z,209.10
2019-01-27T08:54:24.373Z,201.50
2019-01-27T08:56:56.771Z,204.17
2019-01-27T08:59:29.319Z,202.67
2019-01-27T09:02:15.833Z,197.40
2019-01-27T09:05:15.912Z,189.93
2019-01-27T09:08:03.861Z,192.77
2019-01-27T09:10:47.481Z,187.83
2019-01-27T09:13:37.884Z,182.63
2019-01-27T09:16:28.203Z,224.97
2019-01-27T09:19:14.382Z,201.60
2019-01-27T09:22:19.814Z,227.47
2019-01-27T09:25:10.498Z,251.53
2019-01-27T09:27:54.843Z,372.47
2019-01-27T09:30:51.086Z,354.23
2019-01-27T09:33:44.456Z,378.67
2019-01-27T09:36:27.254Z,364.40
2019-01-27T09:39:29.484Z,323.60
2019-01-27T09:42:11.354Z,323.50
2019-01-27T09:44:55.072Z,320.87
2019-01-27T09:47:47.943Z,279.20
2019-01-27T09:59:30.526Z,245.60
2019-01-27T10:02:19.392Z,246.83
2019-01-27T10:05:08.143Z,232.33
2019-01-27T10:08:08.882Z,227.80
2019-01-27T10:11:04.268Z,211.97
2019-01-27T10:14:00.320Z,197.17
2019-01-27T10:16:42.099Z,211.97
2019-01-27T10:19:23.810Z,198.17
2019-01-27T10:22:00.913Z,200.20
2019-01-27T10:24:50.315Z,190.87
2019-01-27T10:27:39.272Z,191.30
2019-01-27T10:30:26.013Z,188.60
2019-01-27T10:33:29.056Z,187.40
2019-01-27T10:36:23.816Z,188.80
2019-01-27T10:39:11.100Z,172.47
2019-01-27T10:41:53.427Z,177.23
2019-01-27T10:44:42.341Z,155.20
2019-01-27T10:47:25.513Z,157.30
2019-01-27T10:50:15.886Z,148.27
2019-01-27T10:53:02.770Z,153.73
2019-01-27T10:55:47.930Z,175.37
2019-01-27T10:58:31.760Z,151.07
2019-01-27T11:01:26.167Z,151.40
2019-01-27T11:04:15.411Z,157.97
2019-01-27T11:07:05.956Z,143.30
2019-01-27T11:09:53.045Z,139.90
2019-01-27T11:12:55.393Z,145.30
2019-01-27T11:15:44.642Z,151.03
2019-01-27T11:18:33.513Z,153.47
2019-01-27T11:21:29.492Z,150.07
2019-01-27T11:24:16.378Z,152.03
2019-01-27T11:26:54.042Z,144.33
2019-01-27T11:29:42.888Z,130.87
2019-01-27T11:32:24.924Z,136.37
2019-01-27T11:35:18.096Z,144.77
2019-01-27T11:38:29.856Z,151.00
2019-01-27T11:41:26.364Z,142.77
2019-01-27T11:44:16.877Z,154.30
2019-01-27T11:47:05.687Z,152.70
2019-01-27T11:49:43.132Z,137.40
2019-01-27T11:52:21.634Z,160.47
2019-01-27T11:54:52.864Z,148.50
2019-01-27T11:57:24.122Z,152.83
2019-01-27T11:59:55.434Z,132.50
2019-01-27T12:02:27.860Z,149.77
2019-01-27T12:04:59.397Z,148.43
2019-01-27T12:07:32.058Z,148.47
2019-01-27T12:10:04.129Z,144.43
2019-01-27T12:12:37.850Z,134.10
2019-01-27T12:15:11.829Z,138.53
2019-01-27T12:17:43.153Z,131.07
2019-01-27T12:20:18.447Z,154.07
2019-01-27T12:22:50.185Z,138.63
2019-01-27T12:25:21.612Z,139.60
2019-01-27T12:27:52.906Z,138.57
2019-01-27T12:30:24.194Z,135.23
2019-01-27T12:32:55.540Z,136.80
2019-01-27T12:35:26.827Z,153.87
2019-01-27T12:37:58.351Z,138.23
2019-01-27T12:40:30.352Z,139.03
2019-01-27T12:43:01.846Z,137.23
2019-01-27T12:45:33.203Z,151.70
2019-01-27T12:48:09.060Z,144.87
2019-01-27T12:51:11.860Z,142.27
2019-01-27T12:53:44.254Z,138.13
2019-01-27T12:56:15.601Z,127.20
2019-01-27T12:58:46.930Z,131.97
2019-01-27T13:01:24.602Z,150.87
2019-01-27T13:03:59.823Z,140.07
2019-01-27T13:06:31.798Z,150.37
2019-01-27T13:09:04.886Z,151.87
2019-01-27T13:11:36.461Z,163.43
2019-01-27T13:14:07.858Z,162.10
2019-01-27T13:16:39.413Z,168.93
2019-01-27T13:19:10.900Z,184.87
2019-01-27T13:21:42.683Z,186.13
2019-01-27T13:24:13.978Z,180.57
2019-01-27T13:26:45.558Z,182.37
2019-01-27T13:29:17.115Z,181.10
2019-01-27T13:31:48.667Z,176.73
2019-01-27T13:34:20.088Z,187.90
2019-01-27T13:36:52.282Z,179.20
2019-01-27T13:39:23.569Z,178.90
2019-01-27T13:41:58.976Z,178.40
2019-01-27T13:44:30.710Z,180.27
2019-01-27T13:47:03.600Z,182.30
2019-01-27T13:49:35.370Z,166.47
2019-01-27T13:52:06.809Z,168.27
2019-01-27T13:54:38.071Z,161.27
2019-01-27T13:57:09.567Z,169.73
2019-01-27T13:59:40.881Z,169.50
2019-01-27T14:02:30.834Z,149.03
2019-01-27T14:05:03.180Z,170.77
2019-01-27T14:07:37.939Z,160.60
2019-01-27T14:10:12.425Z,169.27
2019-01-27T14:12:44.305Z,161.33
2019-01-27T14:15:18.508Z,163.53
2019-01-27T14:17:49.916Z,156.20
2019-01-27T14:20:21.671Z,168.80
2019-01-27T14:22:52.996Z,160.50
2019-01-27T14:25:26.098Z,163.67
2019-01-27T14:27:57.798Z,168.13
2019-01-27T14:30:31.248Z,166.77
2019-01-27T14:33:02.753Z,150.77
2019-01-27T14:35:34.021Z,156.33
2019-01-27T14:38:05.693Z,153.27
2019-01-27T14:40:37.672Z,151.00
2019-01-27T14:43:08.951Z,146.27
2019-01-27T14:45:40.434Z,146.47
2019-01-27T14:48:11.700Z,160.80
2019-01-27T14:50:47.678Z,160.70
2019-01-27T14:53:19.943Z,162.27
2019-01-27T14:55:51.277Z,151.63
2019-01-27T14:58:22.479Z,159.10
2019-01-27T15:00:54.595Z,171.83
2019-01-27T15:03:25.817Z,167.93
2019-01-27T15:06:00.163Z,168.67
2019-01-27T15:08:33.137Z,168.13
2019-01-27T15:11:06.829Z,162.33
2019-01-27T15:13:39.964Z,162.53
2019-01-27T15:16:11.372Z,166.47
2019-01-27T15:18:42.952Z,172.30
2019-01-27T15:21:21.317Z,172.47
2019-01-27T15:23:52.551Z,174.13
2019-01-27T15:26:26.510Z,161.90
2019-01-27T15:28:58.804Z,167.40
2019-01-27T15:31:33.295Z,174.77
2019-01-27T15:34:05.049Z,167.40
2019-01-27T15:36:39.016Z,188.67
2019-01-27T15:39:10.993Z,222.93
2019-01-27T15:41:47.291Z,195.40
2019-01-27T15:44:18.814Z,221.13
2019-01-27T15:46:50.258Z,245.10
2019-01-27T15:49:21.642Z,212.93
2019-01-27T15:51:53.289Z,224.67
2019-01-27T15:54:24.558Z,251.40
2019-01-27T15:56:55.926Z,250.87
2019-01-27T15:59:27.447Z,236.07
2019-01-27T16:01:58.868Z,285.33
2019-01-27T16:04:30.345Z,266.90
2019-01-27T16:07:01.659Z,257.60
2019-01-27T16:09:33.159Z,254.03
2019-01-27T16:12:04.633Z,236.77
2019-01-27T16:14:36.181Z,228.70
2019-01-27T16:17:07.923Z,193.73
2019-01-27T16:19:39.476Z,199.93
2019-01-27T16:22:10.806Z,194.47
2019-01-27T16:24:45.519Z,199.50
2019-01-27T16:27:16.824Z,205.13
2019-01-27T16:29:54.798Z,201.77
2019-01-27T16:32:33.265Z,207.97
2019-01-27T16:35:08.823Z,196.30
2019-01-27T16:37:41.749Z,215.23
2019-01-27T16:40:15.353Z,198.60
2019-01-27T16:42:46.577Z,199.77
2019-01-27T16:45:25.319Z,180.00
2019-01-27T16:47:56.900Z,173.83
2019-01-27T16:50:28.265Z,209.67
2019-01-27T16:52:59.825Z,216.20
2019-01-27T16:55:31.125Z,223.57
2019-01-27T16:58:02.501Z,260.77
2019-01-27T17:00:33.930Z,263.87
2019-01-27T17:03:06.051Z,333.23
2019-01-27T17:05:39.274Z,294.37
2019-01-27T17:08:11.842Z,302.13
2019-01-27T17:10:43.154Z,307.03
2019-01-27T17:13:14.566Z,284.83
2019-01-27T17:15:46.041Z,292.13
2019-01-27T17:18:17.285Z,260.90
2019-01-27T17:20:48.610Z,253.60
2019-01-27T17:23:20.070Z,223.03
2019-01-27T17:25:53.597Z,228.53
2019-01-27T17:28:24.763Z,197.73
2019-01-27T17:30:57.173Z,223.93
2019-01-27T17:33:28.489Z,198.00
2019-01-27T17:36:02.576Z,183.57
2019-01-27T17:38:40.407Z,173.33
2019-01-27T17:41:08.731Z,167.67
2019-01-27T17:43:40.864Z,185.53
2019-01-27T17:46:12.343Z,160.63
2019-01-27T17:48:43.827Z,158.97
2019-01-27T17:51:15.198Z,143.03
2019-01-27T17:54:00.321Z,141.07
2019-01-27T17:56:31.749Z,131.47
2019-01-27T17:59:18.888Z,128.80
2019-01-27T18:02:21.728Z,132.37
2019-01-27T18:05:02.067Z,130.00
2019-01-27T18:07:58.643Z,121.73
2019-01-27T18:10:47.440Z,104.10
2019-01-27T18:13:44.789Z,123.60
2019-01-27T18:16:16.416Z,100.00
2019-01-27T18:18:49.309Z,102.33
2019-01-27T18:21:20.800Z,103.23
2019-01-27T18:23:52.097Z,114.27
2019-01-27T18:26:23.441Z,112.07
2019-01-27T18:28:54.723Z,107.40
2019-01-27T18:31:26.442Z,102.40
2019-01-27T18:33:57.896Z,103.97
2019-01-27T18:36:30.003Z,96.07
2019-01-27T18:39:01.919Z,89.57
2019-01-27T18:41:34.997Z,101.17
2019-01-27T18:44:06.736Z,93.93
2019-01-27T18:46:38.430Z,95.57
2019-01-27T18:49:09.923Z,95.30
2019-01-27T18:51:41.407Z,89.97
2019-01-27T18:54:30.149Z,84.93
2019-01-27T18:57:35.347Z,92.70
2019-01-27T19:00:28.954Z,102.30
2019-01-27T19:03:09.341Z,84.67
2019-01-27T19:06:03.134Z,88.63
2019-01-27T19:08:45.703Z,97.53
2019-01-27T19:11:32.574Z,90.90
2019-01-27T19:14:26.593Z,88.67
2019-01-27T19:17:25.492Z,91.87
2019-01-27T19:20:10.588Z,86.90
2019-01-27T19:23:01.085Z,85.93
2019-01-27T19:25:51.344Z,86.13
2019-01-27T19:28:52.232Z,79.97
2019-01-27T19:31:48.412Z,84.77
2019-01-27T19:34:30.157Z,93.67
2019-01-27T19:37:18.908Z,90.37
2019-01-27T19:40:07.852Z,91.93
2019-01-27T19:43:08.818Z,86.60
2019-01-27T19:45:59.672Z,96.23
2019-01-27T19:48:53.798Z,85.47
2019-01-27T19:51:59.372Z,89.13
2019-01-27T19:54:59.886Z,86.13
2019-01-27T19:57:49.001Z,82.60
2019-01-27T20:00:31.213Z,89.80
2019-01-27T20:03:27.327Z,82.10
2019-01-27T20:06:05.254Z,90.20
2019-01-27T20:09:06.474Z,84.67
2019-01-27T20:11:55.369Z,81.93
2019-01-27T20:14:35.506Z,90.47
2019-01-27T20:17:43.953Z,87.23
2019-01-27T20:20:49.424Z,79.00
2019-01-27T20:23:39.856Z,79.40
2019-01-27T20:26:29.093Z,92.47
2019-01-27T20:29:18.160Z,88.70
2019-01-27T20:32:05.351Z,84.87
2019-01-27T20:35:05.384Z,87.03
2019-01-27T20:37:57.684Z,81.90
2019-01-27T20:40:50.762Z,79.83
2019-01-27T20:43:45.136Z,80.80
2019-01-27T20:46:40.212Z,85.10
2019-01-27T20:49:42.681Z,83.83
2019-01-27T20:52:22.811Z,82.57
2019-01-27T20:55:16.623Z,77.63
2019-01-27T20:57:54.381Z,78.33
2019-01-27T21:00:51.933Z,83.70
2019-01-27T21:03:55.598Z,82.53
2019-01-27T21:06:56.946Z,78.30
2019-01-27T21:09:59.689Z,88.47
2019-01-27T21:13:01.941Z,89.80
2019-01-27T21:15:53.183Z,81.60
2019-01-27T21:18:32.822Z,78.87
2019-01-27T21:21:04.285Z,80.43
2019-01-27T21:23:37.454Z,84.57
2019-01-27T21:26:08.830Z,78.17
2019-01-27T21:28:40.633Z,83.07
2019-01-27T21:31:12.077Z,76.50
2019-01-27T21:33:44.185Z,83.27
2019-01-27T21:36:35.833Z,75.80
2019-01-27T21:39:13.225Z,86.80
2019-01-27T21:41:46.608Z,84.67
2019-01-27T21:44:19.772Z,83.47
2019-01-27T21:46:54.207Z,78.97
2019-01-27T21:49:25.842Z,84.30
2019-01-27T21:51:57.860Z,77.83
2019-01-27T21:54:29.004Z,84.03
2019-01-27T21:57:00.528Z,86.43
2019-01-27T21:59:32.203Z,91.13
2019-01-27T22:02:09.065Z,82.13
2019-01-27T22:04:40.979Z,84.90
2019-01-27T22:07:12.707Z,73.30
2019-01-27T22:09:44.531Z,85.43
2019-01-27T22:12:18.525Z,80.10
2019-01-27T22:14:52.459Z,81.53
2019-01-27T22:17:24.262Z,75.23
2019-01-27T22:19:55.821Z,78.33
2019-01-27T22:22:27.202Z,80.77
2019-01-27T22:24:59.198Z,77.17
2019-01-27T22:27:31.645Z,85.63
2019-01-27T22:30:04.632Z,76.43
2019-01-27T22:32:35.501Z,80.07
2019-01-27T22:35:06.907Z,80.77
2019-01-27T22:37:41.738Z,81.33
2019-01-27T22:40:13.898Z,81.63
2019-01-27T22:42:45.935Z,77.43
2019-01-27T22:45:17.453Z,75.03
2019-01-27T22:47:49.065Z,81.00
2019-01-27T22:50:20.357Z,83.40
2019-01-27T22:52:52.606Z,81.77
2019-01-27T22:55:24.072Z,77.63
2019-01-27T22:57:55.601Z,79.70
2019-01-27T23:00:49.393Z,81.20
2019-01-27T23:03:21.408Z,76.63
2019-01-27T23:05:53.222Z,79.53
2019-01-27T23:08:24.524Z,71.50
2019-01-27T23:10:55.719Z,74.17
2019-01-27T23:13:27.018Z,74.27
2019-01-27T23:15:58.638Z,76.93
2019-01-27T23:18:30.221Z,64.67
2019-01-27T23:21:01.603Z,73.23
2019-01-27T23:23:33.842Z,76.80
2019-01-27T23:26:05.276Z,71.60
2019-01-27T23:28:36.700Z,77.23
2019-01-27T23:31:08.044Z,73.47
2019-01-27T23:33:39.630Z,80.07
2019-01-27T23:36:11.357Z,71.17
2019-01-27T23:38:44.149Z,75.67
2019-01-27T23:41:15.637Z,69.63
2019-01-27T23:43:46.999Z,74.77
2019-01-27T23:46:22.575Z,70.83
2019-01-27T23:48:54.262Z,74.10
2019-01-27T23:51:25.666Z,70.10
2019-01-27T23:53:57.041Z,72.17
2019-01-27T23:56:28.389Z,66.87
2019-01-27T23:59:00.308Z,67.33
